sensor_id;sensor_type;location;lat;lon;timestamp;pressure;altitude;pressure_sealevel;temperature;humidity
51123;BME280;37162;41.724;13.346;2023-04-04T00:00:08;95613.28;;;17.36;58.38
51123;BME280;37162;41.724;13.346;2023-04-04T00:02:34;95613.81;;;17.38;57.96
51123;BME280;37162;41.724;13.346;2023-04-04T00:05:00;95543.41;;;17.16;58.26
51123;BME280;37162;41.724;13.346;2023-04-04T00:07:25;95604.69;;;17.40;58.41
51123;BME280;37162;41.724;13.346;2023-04-04T00:09:52;95602.00;;;17.34;58.35
51123;BME280;37162;41.724;13.346;2023-04-04T00:12:17;95603.88;;;17.34;58.25
51123;BME280;37162;41.724;13.346;2023-04-04T00:14:43;95596.63;;;17.34;58.25
51123;BME280;37162;41.724;13.346;2023-04-04T00:17:08;95599.31;;;17.40;58.42
51123;BME280;37162;41.724;13.346;2023-04-04T00:19:34;95588.03;;;17.27;58.13
51123;BME280;37162;41.724;13.346;2023-04-04T00:21:59;95598.50;;;17.34;58.12
51123;BME280;37162;41.724;13.346;2023-04-04T00:24:25;95607.94;;;17.36;58.20
51123;BME280;37162;41.724;13.346;2023-04-04T00:26:51;95588.31;;;17.36;58.29
51123;BME280;37162;41.724;13.346;2023-04-04T00:29:16;95604.16;;;17.37;58.32
51123;BME280;37162;41.724;13.346;2023-04-04T00:31:42;95592.34;;;17.38;58.07
51123;BME280;37162;41.724;13.346;2023-04-04T00:34:08;95601.47;;;17.37;58.19
51123;BME280;37162;41.724;13.346;2023-04-04T00:36:33;95609.53;;;17.37;58.19
51123;BME280;37162;41.724;13.346;2023-04-04T00:38:58;95595.31;;;17.37;58.33
51123;BME280;37162;41.724;13.346;2023-04-04T00:41:24;95599.31;;;17.34;58.70
51123;BME280;37162;41.724;13.346;2023-04-04T00:43:49;95607.66;;;17.38;58.83
51123;BME280;37162;41.724;13.346;2023-04-04T00:46:15;95590.19;;;17.35;58.93
51123;BME280;37162;41.724;13.346;2023-04-04T00:48:43;95609.25;;;17.39;58.75
51123;BME280;37162;41.724;13.346;2023-04-04T00:51:08;95599.88;;;17.36;58.60
51123;BME280;37162;41.724;13.346;2023-04-04T00:53:34;95607.66;;;17.38;58.73
51123;BME280;37162;41.724;13.346;2023-04-04T00:56:01;95595.03;;;17.38;59.11
51123;BME280;37162;41.724;13.346;2023-04-04T00:58:28;95604.97;;;17.38;59.19
51123;BME280;37162;41.724;13.346;2023-04-04T01:00:54;95595.31;;;17.37;59.55
51123;BME280;37162;41.724;13.346;2023-04-04T01:03:20;95601.72;;;17.36;59.68
51123;BME280;37162;41.724;13.346;2023-04-04T01:05:45;95609.78;;;17.36;59.23
51123;BME280;37162;41.724;13.346;2023-04-04T01:08:11;95591.25;;;17.34;59.66
51123;BME280;37162;41.724;13.346;2023-04-04T01:10:38;95602.00;;;17.34;59.57
51123;BME280;37162;41.724;13.346;2023-04-04T01:13:04;95604.16;;;17.32;59.17
51123;BME280;37162;41.724;13.346;2023-04-04T01:15:29;95621.06;;;17.33;59.25
51123;BME280;37162;41.724;13.346;2023-04-04T01:17:58;95596.59;;;17.24;58.80
51123;BME280;37162;41.724;13.346;2023-04-04T01:20:28;95609.75;;;17.31;58.85
51123;BME280;37162;41.724;13.346;2023-04-04T01:22:55;95617.00;;;17.30;58.75
51123;BME280;37162;41.724;13.346;2023-04-04T01:25:27;95608.97;;;17.30;58.68
51123;BME280;37162;41.724;13.346;2023-04-04T01:27:54;95598.47;;;17.24;58.80
51123;BME280;37162;41.724;13.346;2023-04-04T01:30:21;95603.59;;;17.30;58.73
51123;BME280;37162;41.724;13.346;2023-04-04T01:32:52;95602.78;;;17.30;58.73
51123;BME280;37162;41.724;13.346;2023-04-04T01:35:28;95613.78;;;17.28;58.79
51123;BME280;37162;41.724;13.346;2023-04-04T01:40:32;95616.47;;;17.28;58.97
51123;BME280;37162;41.724;13.346;2023-04-04T01:43:01;95617.00;;;17.30;58.98
51123;BME280;37162;41.724;13.346;2023-04-04T01:45:27;95613.53;;;17.30;59.21
51123;BME280;37162;41.724;13.346;2023-04-04T01:47:54;95617.56;;;17.27;58.92
51123;BME280;37162;41.724;13.346;2023-04-04T01:50:19;95624.03;;;17.31;59.05
51123;BME280;37162;41.724;13.346;2023-04-04T01:52:45;95621.34;;;17.31;59.06
51123;BME280;37162;41.724;13.346;2023-04-04T01:55:11;95628.31;;;17.32;58.85
51123;BME280;37162;41.724;13.346;2023-04-04T01:57:36;95626.69;;;17.31;58.86
51123;BME280;37162;41.724;13.346;2023-04-04T02:00:02;95618.66;;;17.31;58.75
51123;BME280;37162;41.724;13.346;2023-04-04T02:02:29;95626.69;;;17.31;58.54
51123;BME280;37162;41.724;13.346;2023-04-04T02:04:55;95623.19;;;17.31;58.59
51123;BME280;37162;41.724;13.346;2023-04-04T02:07:20;95624.03;;;17.31;58.37
51123;BME280;37162;41.724;13.346;2023-04-04T02:09:45;95625.63;;;17.32;58.26
51123;BME280;37162;41.724;13.346;2023-04-04T02:12:11;95624.81;;;17.32;58.34
51123;BME280;37162;41.724;13.346;2023-04-04T02:14:36;95618.66;;;17.31;58.19
51123;BME280;37162;41.724;13.346;2023-04-04T02:17:02;95620.50;;;17.31;58.19
51123;BME280;37162;41.724;13.346;2023-04-04T02:19:27;95618.66;;;17.31;58.11
51123;BME280;37162;41.724;13.346;2023-04-04T02:21:53;95616.78;;;17.32;58.34
51123;BME280;37162;41.724;13.346;2023-04-04T02:24:18;95621.34;;;17.31;58.22
51123;BME280;37162;41.724;13.346;2023-04-04T02:26:44;95620.50;;;17.31;58.02
51123;BME280;37162;41.724;13.346;2023-04-04T02:29:09;95624.03;;;17.31;58.22
51123;BME280;37162;41.724;13.346;2023-04-04T02:31:35;95635.56;;;17.32;58.13
51123;BME280;37162;41.724;13.346;2023-04-04T02:34:00;95627.50;;;17.32;58.34
51123;BME280;37162;41.724;13.346;2023-04-04T02:36:26;95631.81;;;17.33;58.77
51123;BME280;37162;41.724;13.346;2023-04-04T02:38:51;95631.81;;;17.33;58.95
51123;BME280;37162;41.724;13.346;2023-04-04T02:41:17;95612.41;;;17.21;59.18
51123;BME280;37162;41.724;13.346;2023-04-04T02:43:42;95631.81;;;17.33;58.89
51123;BME280;37162;41.724;13.346;2023-04-04T02:46:08;95628.31;;;17.32;59.18
51123;BME280;37162;41.724;13.346;2023-04-04T02:48:33;95633.69;;;17.32;58.85
51123;BME280;37162;41.724;13.346;2023-04-04T02:51:00;95626.69;;;17.31;58.60
51123;BME280;37162;41.724;13.346;2023-04-04T02:53:26;95610.81;;;17.25;58.34
51123;BME280;37162;41.724;13.346;2023-04-04T02:55:52;95611.59;;;17.20;58.16
51123;BME280;37162;41.724;13.346;2023-04-04T02:58:17;95609.75;;;17.26;58.15
51123;BME280;37162;41.724;13.346;2023-04-04T03:00:43;95618.66;;;17.31;58.07
51123;BME280;37162;41.724;13.346;2023-04-04T03:03:08;95610.81;;;17.25;58.05
51123;BME280;37162;41.724;13.346;2023-04-04T03:05:34;95618.66;;;17.31;58.06
51123;BME280;37162;41.724;13.346;2023-04-04T03:07:59;95605.19;;;17.26;57.73
51123;BME280;37162;41.724;13.346;2023-04-04T03:10:27;95619.47;;;17.32;57.89
51123;BME280;37162;41.724;13.346;2023-04-04T03:12:56;95603.28;;;17.22;57.92
51123;BME280;37162;41.724;13.346;2023-04-04T03:15:22;95617.81;;;17.31;57.91
51123;BME280;37162;41.724;13.346;2023-04-04T03:17:47;95625.88;;;17.31;58.07
51123;BME280;37162;41.724;13.346;2023-04-04T03:20:13;95633.91;;;17.31;57.78
51123;BME280;37162;41.724;13.346;2023-04-04T03:22:39;95634.75;;;17.31;57.88
51123;BME280;37162;41.724;13.346;2023-04-04T03:25:06;95627.75;;;17.30;57.75
51123;BME280;37162;41.724;13.346;2023-04-04T03:27:31;95631.25;;;17.31;57.86
51123;BME280;37162;41.724;13.346;2023-04-04T03:29:57;95629.63;;;17.30;58.10
51123;BME280;37162;41.724;13.346;2023-04-04T03:32:24;95633.91;;;17.31;58.33
51123;BME280;37162;41.724;13.346;2023-04-04T03:34:49;95631.25;;;17.31;58.55
51123;BME280;37162;41.724;13.346;2023-04-04T03:37:16;95611.34;;;17.22;58.50
51123;BME280;37162;41.724;13.346;2023-04-04T03:39:41;95635.00;;;17.30;58.82
51123;BME280;37162;41.724;13.346;2023-04-04T03:42:07;95637.69;;;17.30;58.50
51123;BME280;37162;41.724;13.346;2023-04-04T03:44:32;95635.00;;;17.30;58.33
51123;BME280;37162;41.724;13.346;2023-04-04T03:46:58;95626.13;;;17.29;58.52
51123;BME280;37162;41.724;13.346;2023-04-04T03:49:23;95633.66;;;17.27;58.63
51123;BME280;37162;41.724;13.346;2023-04-04T03:51:48;95640.63;;;17.28;58.70
51123;BME280;37162;41.724;13.346;2023-04-04T03:54:14;95636.06;;;17.24;58.77
51123;BME280;37162;41.724;13.346;2023-04-04T03:56:40;95642.53;;;17.28;58.93
51123;BME280;37162;41.724;13.346;2023-04-04T03:59:05;95647.88;;;17.28;59.12
51123;BME280;37162;41.724;13.346;2023-04-04T04:01:31;95634.44;;;17.18;59.15
51123;BME280;37162;41.724;13.346;2023-04-04T04:03:56;95651.88;;;17.25;58.85
51123;BME280;37162;41.724;13.346;2023-04-04T04:06:22;95644.91;;;17.24;58.53
51123;BME280;37162;41.724;13.346;2023-04-04T04:08:47;95655.66;;;17.24;58.77
51123;BME280;37162;41.724;13.346;2023-04-04T04:11:13;95652.16;;;17.24;58.34
51123;BME280;37162;41.724;13.346;2023-04-04T04:13:38;95649.47;;;17.24;58.50
51123;BME280;37162;41.724;13.346;2023-04-04T04:16:04;95654.03;;;17.23;58.64
51123;BME280;37162;41.724;13.346;2023-04-04T04:18:30;95659.94;;;17.25;59.63
51123;BME280;37162;41.724;13.346;2023-04-04T04:20:57;95664.50;;;17.25;59.79
51123;BME280;37162;41.724;13.346;2023-04-04T04:23:27;95671.22;;;17.22;59.12
51123;BME280;37162;41.724;13.346;2023-04-04T04:25:52;95670.38;;;17.22;58.50
51123;BME280;37162;41.724;13.346;2023-04-04T04:28:18;95671.22;;;17.22;58.28
51123;BME280;37162;41.724;13.346;2023-04-04T04:30:44;95673.63;;;17.24;58.44
51123;BME280;37162;41.724;13.346;2023-04-04T04:33:10;95674.16;;;17.26;58.68
51123;BME280;37162;41.724;13.346;2023-04-04T04:35:36;95680.34;;;17.26;58.91
51123;BME280;37162;41.724;13.346;2023-04-04T04:38:03;95680.34;;;17.26;58.84
51123;BME280;37162;41.724;13.346;2023-04-04T04:40:28;95684.91;;;17.26;58.71
51123;BME280;37162;41.724;13.346;2023-04-04T04:42:54;95684.91;;;17.26;58.76
51123;BME280;37162;41.724;13.346;2023-04-04T04:45:20;95689.47;;;17.25;58.29
51123;BME280;37162;41.724;13.346;2023-04-04T04:47:45;95684.91;;;17.26;58.10
51123;BME280;37162;41.724;13.346;2023-04-04T04:50:11;95687.59;;;17.26;57.99
51123;BME280;37162;41.724;13.346;2023-04-04T04:52:39;95692.97;;;17.26;57.79
51123;BME280;37162;41.724;13.346;2023-04-04T04:55:05;95700.22;;;17.25;57.68
51123;BME280;37162;41.724;13.346;2023-04-04T04:57:30;95697.53;;;17.25;57.83
51123;BME280;37162;41.724;13.346;2023-04-04T04:59:58;95692.16;;;17.25;57.67
51123;BME280;37162;41.724;13.346;2023-04-04T05:02:24;95695.09;;;17.24;57.61
51123;BME280;37162;41.724;13.346;2023-04-04T05:04:49;95686.19;;;17.13;57.59
51123;BME280;37162;41.724;13.346;2023-04-04T05:07:15;95697.78;;;17.24;57.85
51123;BME280;37162;41.724;13.346;2023-04-04T05:09:41;95699.69;;;17.23;57.75
51123;BME280;37162;41.724;13.346;2023-04-04T05:12:07;95688.09;;;17.13;57.82
51123;BME280;37162;41.724;13.346;2023-04-04T05:14:32;95706.91;;;17.23;57.69
51123;BME280;37162;41.724;13.346;2023-04-04T05:16:58;95711.47;;;17.22;57.76
51123;BME280;37162;41.724;13.346;2023-04-04T05:20:02;95714.41;;;17.21;57.49
51123;BME280;37162;41.724;13.346;2023-04-04T05:22:28;95711.72;;;17.21;57.57
51123;BME280;37162;41.724;13.346;2023-04-04T05:24:54;95727.03;;;17.20;57.33
51123;BME280;37162;41.724;13.346;2023-04-04T05:27:20;95720.03;;;17.19;57.19
51123;BME280;37162;41.724;13.346;2023-04-04T05:29:45;95715.16;;;17.11;57.21
51123;BME280;37162;41.724;13.346;2023-04-04T05:32:12;95722.72;;;17.19;57.25
51123;BME280;37162;41.724;13.346;2023-04-04T05:34:37;95728.09;;;17.19;57.31
51123;BME280;37162;41.724;13.346;2023-04-04T05:37:03;95739.63;;;17.20;57.36
51123;BME280;37162;41.724;13.346;2023-04-04T05:39:28;95737.75;;;17.20;57.75
51123;BME280;37162;41.724;13.346;2023-04-04T05:41:54;95739.63;;;17.20;57.57
51123;BME280;37162;41.724;13.346;2023-04-04T05:44:19;95714.56;;;16.99;57.37
51123;BME280;37162;41.724;13.346;2023-04-04T05:46:45;95745.28;;;17.18;57.02
51123;BME280;37162;41.724;13.346;2023-04-04T05:49:10;95747.97;;;17.18;57.21
51123;BME280;37162;41.724;13.346;2023-04-04T05:51:36;95746.88;;;17.19;57.17
51123;BME280;37162;41.724;13.346;2023-04-04T05:54:01;95747.16;;;17.18;56.98
51123;BME280;37162;41.724;13.346;2023-04-04T05:56:27;95752.75;;;17.16;57.14
51123;BME280;37162;41.724;13.346;2023-04-04T05:58:52;95760.56;;;17.18;57.12
51123;BME280;37162;41.724;13.346;2023-04-04T06:01:18;95749.25;;;17.10;57.31
51123;BME280;37162;41.724;13.346;2023-04-04T06:03:43;95756.25;;;17.17;57.17
51123;BME280;37162;41.724;13.346;2023-04-04T06:06:09;95755.44;;;17.16;57.28
51123;BME280;37162;41.724;13.346;2023-04-04T06:08:34;95755.44;;;17.16;57.25
51123;BME280;37162;41.724;13.346;2023-04-04T06:11:00;95768.31;;;17.14;57.47
51123;BME280;37162;41.724;13.346;2023-04-04T06:13:25;95762.16;;;17.14;57.27
51123;BME280;37162;41.724;13.346;2023-04-04T06:15:51;95763.22;;;17.13;57.23
51123;BME280;37162;41.724;13.346;2023-04-04T06:18:17;95762.38;;;17.12;57.33
51123;BME280;37162;41.724;13.346;2023-04-04T06:20:42;95757.03;;;17.12;57.38
51123;BME280;37162;41.724;13.346;2023-04-04T06:23:08;95755.41;;;17.11;57.40
51123;BME280;37162;41.724;13.346;2023-04-04T06:25:35;95753.81;;;17.10;57.75
51123;BME280;37162;41.724;13.346;2023-04-04T06:28:01;95759.44;;;17.08;57.52
51123;BME280;37162;41.724;13.346;2023-04-04T06:30:28;95758.09;;;17.11;57.54
51123;BME280;37162;41.724;13.346;2023-04-04T06:32:53;95750.31;;;17.09;57.65
51123;BME280;37162;41.724;13.346;2023-04-04T06:35:20;95759.97;;;17.10;57.51
51123;BME280;37162;41.724;13.346;2023-04-04T06:37:45;95765.34;;;17.10;57.41
51123;BME280;37162;41.724;13.346;2023-04-04T06:40:11;95760.78;;;17.11;57.65
51123;BME280;37162;41.724;13.346;2023-04-04T06:42:37;95758.66;;;17.13;58.38
51123;BME280;37162;41.724;13.346;2023-04-04T06:45:02;95758.63;;;17.08;58.83
51123;BME280;37162;41.724;13.346;2023-04-04T06:47:28;95756.22;;;17.11;59.11
51123;BME280;37162;41.724;13.346;2023-04-04T06:49:54;95767.22;;;17.10;58.22
51123;BME280;37162;41.724;13.346;2023-04-04T06:52:19;95765.63;;;17.09;57.57
51123;BME280;37162;41.724;13.346;2023-04-04T06:54:45;95764.53;;;17.10;57.55
51123;BME280;37162;41.724;13.346;2023-04-04T06:57:10;95763.47;;;17.11;57.18
51123;BME280;37162;41.724;13.346;2023-04-04T06:59:36;95755.94;;;17.08;57.26
51123;BME280;37162;41.724;13.346;2023-04-04T07:02:01;95769.63;;;17.11;57.36
51123;BME280;37162;41.724;13.346;2023-04-04T07:04:27;95765.91;;;17.13;57.41
51123;BME280;37162;41.724;13.346;2023-04-04T07:06:52;95768.59;;;17.13;57.34
51123;BME280;37162;41.724;13.346;2023-04-04T07:09:17;95769.41;;;17.13;57.14
51123;BME280;37162;41.724;13.346;2023-04-04T07:11:43;95772.09;;;17.13;57.27
51123;BME280;37162;41.724;13.346;2023-04-04T07:14:08;95770.19;;;17.14;57.16
51123;BME280;37162;41.724;13.346;2023-04-04T07:16:34;95779.06;;;17.14;57.49
51123;BME280;37162;41.724;13.346;2023-04-04T07:19:01;95766.41;;;17.09;57.33
51123;BME280;37162;41.724;13.346;2023-04-04T07:21:26;95776.38;;;17.14;57.23
51123;BME280;37162;41.724;13.346;2023-04-04T07:23:52;95759.94;;;17.05;57.25
51123;BME280;37162;41.724;13.346;2023-04-04T07:26:18;95774.22;;;17.16;57.27
51123;BME280;37162;41.724;13.346;2023-04-04T07:28:43;95780.41;;;17.17;57.31
51123;BME280;37162;41.724;13.346;2023-04-04T07:31:09;95783.34;;;17.15;57.38
51123;BME280;37162;41.724;13.346;2023-04-04T07:33:39;95791.72;;;17.19;57.54
51123;BME280;37162;41.724;13.346;2023-04-04T07:36:04;95796.81;;;17.20;57.68
51123;BME280;37162;41.724;13.346;2023-04-04T07:38:29;95800.31;;;17.21;57.56
51123;BME280;37162;41.724;13.346;2023-04-04T07:40:55;95812.91;;;17.20;57.87
51123;BME280;37162;41.724;13.346;2023-04-04T07:43:21;95809.16;;;17.21;57.56
51123;BME280;37162;41.724;13.346;2023-04-04T07:45:46;95810.22;;;17.20;57.17
51123;BME280;37162;41.724;13.346;2023-04-04T07:48:12;95810.22;;;17.20;57.22
51123;BME280;37162;41.724;13.346;2023-04-04T07:50:37;95812.09;;;17.20;56.88
51123;BME280;37162;41.724;13.346;2023-04-04T07:53:03;95812.91;;;17.20;56.88
51123;BME280;37162;41.724;13.346;2023-04-04T07:55:28;95810.22;;;17.20;56.95
51123;BME280;37162;41.724;13.346;2023-04-04T07:57:54;95809.44;;;17.20;56.73
51123;BME280;37162;41.724;13.346;2023-04-04T08:00:20;95805.13;;;17.19;56.92
51123;BME280;37162;41.724;13.346;2023-04-04T08:02:55;95814.00;;;17.19;57.09
51123;BME280;37162;41.724;13.346;2023-04-04T08:05:23;95815.59;;;17.20;56.67
51123;BME280;37162;41.724;13.346;2023-04-04T08:07:48;95820.97;;;17.20;56.95
51123;BME280;37162;41.724;13.346;2023-04-04T08:10:14;95830.91;;;17.20;56.92
51123;BME280;37162;41.724;13.346;2023-04-04T08:12:42;95826.34;;;17.20;57.17
51123;BME280;37162;41.724;13.346;2023-04-04T08:15:08;95832.50;;;17.21;57.00
51123;BME280;37162;41.724;13.346;2023-04-04T08:17:35;95822.56;;;17.21;57.09
51123;BME280;37162;41.724;13.346;2023-04-04T08:20:01;95836.00;;;17.21;57.22
51123;BME280;37162;41.724;13.346;2023-04-04T08:22:26;95829.59;;;17.22;57.02
51123;BME280;37162;41.724;13.346;2023-04-04T08:24:52;95831.19;;;17.23;56.87
51123;BME280;37162;41.724;13.346;2023-04-04T08:27:17;95841.66;;;17.25;56.69
51123;BME280;37162;41.724;13.346;2023-04-04T08:29:42;95838.72;;;17.26;57.06
51123;BME280;37162;41.724;13.346;2023-04-04T08:32:09;95844.66;;;17.28;56.86
51123;BME280;37162;41.724;13.346;2023-04-04T08:34:35;95846.53;;;17.28;56.80
51123;BME280;37162;41.724;13.346;2023-04-04T08:37:00;95849.75;;;17.30;56.55
51123;BME280;37162;41.724;13.346;2023-04-04T08:39:25;95848.69;;;17.31;56.44
51123;BME280;37162;41.724;13.346;2023-04-04T08:42:00;95849.75;;;17.30;56.44
51123;BME280;37162;41.724;13.346;2023-04-04T08:44:27;95850.84;;;17.29;56.35
51123;BME280;37162;41.724;13.346;2023-04-04T08:46:54;95862.09;;;17.31;56.18
51123;BME280;37162;41.724;13.346;2023-04-04T08:49:20;95868.84;;;17.33;56.25
51123;BME280;37162;41.724;13.346;2023-04-04T08:51:48;95868.84;;;17.33;56.23
51123;BME280;37162;41.724;13.346;2023-04-04T08:54:15;95871.81;;;17.32;55.95
51123;BME280;37162;41.724;13.346;2023-04-04T08:56:42;95872.84;;;17.31;56.05
51123;BME280;37162;41.724;13.346;2023-04-04T08:59:07;95878.22;;;17.31;55.97
51123;BME280;37162;41.724;13.346;2023-04-04T09:01:35;95888.41;;;17.29;55.91
51123;BME280;37162;41.724;13.346;2023-04-04T09:04:01;95893.78;;;17.29;56.07
51123;BME280;37162;41.724;13.346;2023-04-04T09:06:27;95895.66;;;17.28;56.36
51123;BME280;37162;41.724;13.346;2023-04-04T09:08:53;95888.69;;;17.27;56.28
51123;BME280;37162;41.724;13.346;2023-04-04T09:11:20;95897.53;;;17.28;56.61
51123;BME280;37162;41.724;13.346;2023-04-04T09:13:47;95898.63;;;17.27;56.51
51123;BME280;37162;41.724;13.346;2023-04-04T09:16:14;95892.41;;;17.26;56.74
51123;BME280;37162;41.724;13.346;2023-04-04T09:18:41;95885.38;;;17.20;56.84
51123;BME280;37162;41.724;13.346;2023-04-04T09:21:10;95888.09;;;17.25;56.75
51123;BME280;37162;41.724;13.346;2023-04-04T09:23:36;95887.31;;;17.25;56.72
51123;BME280;37162;41.724;13.346;2023-04-04T09:26:02;95898.03;;;17.25;56.74
51123;BME280;37162;41.724;13.346;2023-04-04T09:28:28;95897.22;;;17.24;56.79
51123;BME280;37162;41.724;13.346;2023-04-04T09:30:53;95894.50;;;17.19;56.97
51123;BME280;37162;41.724;13.346;2023-04-04T09:33:20;95906.66;;;17.27;57.31
51123;BME280;37162;41.724;13.346;2023-04-04T09:35:50;95906.91;;;17.25;57.46
51123;BME280;37162;41.724;13.346;2023-04-04T09:38:21;95897.19;;;17.19;57.51
51123;BME280;37162;41.724;13.346;2023-04-04T09:40:47;95902.09;;;17.27;57.48
51123;BME280;37162;41.724;13.346;2023-04-04T09:43:13;95912.84;;;17.27;57.63
51123;BME280;37162;41.724;13.346;2023-04-04T09:45:41;95919.03;;;17.28;57.57
51123;BME280;37162;41.724;13.346;2023-04-04T09:48:06;95929.75;;;17.28;57.45
51123;BME280;37162;41.724;13.346;2023-04-04T09:50:35;95931.63;;;17.27;56.93
51123;BME280;37162;41.724;13.346;2023-04-04T09:53:01;95930.00;;;17.26;57.04
51123;BME280;37162;41.724;13.346;2023-04-04T09:55:34;95937.81;;;17.28;56.79
51123;BME280;37162;41.724;13.346;2023-04-04T09:58:15;95938.63;;;17.28;56.78
51123;BME280;37162;41.724;13.346;2023-04-04T10:00:42;95947.75;;;17.27;56.65
51123;BME280;37162;41.724;13.346;2023-04-04T10:03:16;95946.66;;;17.28;56.89
51123;BME280;37162;41.724;13.346;2023-04-04T10:05:44;95946.66;;;17.28;56.80
51123;BME280;37162;41.724;13.346;2023-04-04T10:08:16;95945.88;;;17.28;56.65
51123;BME280;37162;41.724;13.346;2023-04-04T10:10:49;95948.28;;;17.29;56.88
51123;BME280;37162;41.724;13.346;2023-04-04T10:15:54;95953.91;;;17.28;56.72
51123;BME280;37162;41.724;13.346;2023-04-04T10:18:24;95953.91;;;17.28;56.90
51123;BME280;37162;41.724;13.346;2023-04-04T10:20:52;95955.00;;;17.27;56.84
51123;BME280;37162;41.724;13.346;2023-04-04T10:23:18;95946.09;;;17.26;56.77
51123;BME280;37162;41.724;13.346;2023-04-04T10:25:47;95947.94;;;17.21;56.72
51123;BME280;37162;41.724;13.346;2023-04-04T10:28:14;95942.56;;;17.21;56.79
51123;BME280;37162;41.724;13.346;2023-04-04T10:30:42;95957.91;;;17.25;56.87
51123;BME280;37162;41.724;13.346;2023-04-04T10:36:11;95954.41;;;17.25;57.25
51123;BME280;37162;41.724;13.346;2023-04-04T10:38:42;95958.97;;;17.24;57.25
51123;BME280;37162;41.724;13.346;2023-04-04T10:41:10;95961.66;;;17.24;56.99
51123;BME280;37162;41.724;13.346;2023-04-04T10:43:39;95967.03;;;17.24;57.05
51123;BME280;37162;41.724;13.346;2023-04-04T10:46:14;95959.25;;;17.23;56.82
51123;BME280;37162;41.724;13.346;2023-04-04T10:48:40;95962.97;;;17.22;57.14
51123;BME280;37162;41.724;13.346;2023-04-04T10:51:07;95958.44;;;17.22;57.02
51123;BME280;37162;41.724;13.346;2023-04-04T10:53:34;95971.84;;;17.22;56.99
51123;BME280;37162;41.724;13.346;2023-04-04T10:56:02;95958.66;;;17.21;56.83
51123;BME280;37162;41.724;13.346;2023-04-04T10:58:27;95957.06;;;17.20;57.15
51123;BME280;37162;41.724;13.346;2023-04-04T11:00:54;95955.19;;;17.20;56.97
51123;BME280;37162;41.724;13.346;2023-04-04T11:03:21;95965.09;;;17.20;57.04
51123;BME280;37162;41.724;13.346;2023-04-04T11:05:46;95960.81;;;17.19;57.21
51123;BME280;37162;41.724;13.346;2023-04-04T11:08:22;95957.31;;;17.18;56.86
51123;BME280;37162;41.724;13.346;2023-04-04T11:10:50;95956.50;;;17.18;56.74
51123;BME280;37162;41.724;13.346;2023-04-04T11:16:03;95956.75;;;17.16;57.05
51123;BME280;37162;41.724;13.346;2023-04-04T11:21:00;95953.25;;;17.16;57.04
51123;BME280;37162;41.724;13.346;2023-04-04T11:23:26;95957.00;;;17.15;57.02
51123;BME280;37162;41.724;13.346;2023-04-04T11:25:55;95962.13;;;17.16;56.80
51123;BME280;37162;41.724;13.346;2023-04-04T11:39:25;95959.75;;;17.20;58.16
51123;BME280;37162;41.724;13.346;2023-04-04T11:41:55;95948.47;;;17.18;58.23
51123;BME280;37162;41.724;13.346;2023-04-04T11:44:25;95952.75;;;17.19;57.74
51123;BME280;37162;41.724;13.346;2023-04-04T11:49:39;95951.69;;;17.20;57.28
51123;BME280;37162;41.724;13.346;2023-04-04T11:54:33;95947.94;;;17.21;57.37
51123;BME280;37162;41.724;13.346;2023-04-04T11:56:59;95948.19;;;17.19;57.36
51123;BME280;37162;41.724;13.346;2023-04-04T11:59:25;95948.72;;;17.21;57.27
51123;BME280;37162;41.724;13.346;2023-04-04T12:01:53;95942.81;;;17.19;57.54
51123;BME280;37162;41.724;13.346;2023-04-04T12:04:19;95941.50;;;17.22;57.59
51123;BME280;37162;41.724;13.346;2023-04-04T12:06:49;95944.19;;;17.22;57.54
51123;BME280;37162;41.724;13.346;2023-04-04T12:09:18;95944.44;;;17.20;57.55
51123;BME280;37162;41.724;13.346;2023-04-04T12:11:49;95952.22;;;17.22;57.41
51123;BME280;37162;41.724;13.346;2023-04-04T12:14:24;95952.22;;;17.22;57.59
51123;BME280;37162;41.724;13.346;2023-04-04T12:16:54;95947.13;;;17.20;57.44
51123;BME280;37162;41.724;13.346;2023-04-04T12:19:23;95931.72;;;17.10;57.67
51123;BME280;37162;41.724;13.346;2023-04-04T12:21:50;95955.75;;;17.22;57.49
51123;BME280;37162;41.724;13.346;2023-04-04T12:24:17;95951.41;;;17.21;57.28
51123;BME280;37162;41.724;13.346;2023-04-04T12:26:49;95954.91;;;17.22;57.58
51123;BME280;37162;41.724;13.346;2023-04-04T12:29:16;95956.50;;;17.18;57.46
51123;BME280;37162;41.724;13.346;2023-04-04T12:31:44;95960.03;;;17.23;58.17
51123;BME280;37162;41.724;13.346;2023-04-04T12:34:20;95942.50;;;17.16;58.44
51123;BME280;37162;41.724;13.346;2023-04-04T12:36:46;95958.97;;;17.24;58.73
51123;BME280;37162;41.724;13.346;2023-04-04T12:39:17;95963.53;;;17.24;58.85
51123;BME280;37162;41.724;13.346;2023-04-04T12:42:01;95958.94;;;17.19;58.67
51123;BME280;37162;41.724;13.346;2023-04-04T12:44:35;95954.31;;;17.15;58.38
51123;BME280;37162;41.724;13.346;2023-04-04T12:47:06;95963.72;;;17.17;58.00
51123;BME280;37162;41.724;13.346;2023-04-04T12:49:33;95962.97;;;17.22;58.04
51123;BME280;37162;41.724;13.346;2023-04-04T12:51:59;95962.97;;;17.22;57.83
51123;BME280;37162;41.724;13.346;2023-04-04T12:54:34;95969.16;;;17.22;57.69
51123;BME280;37162;41.724;13.346;2023-04-04T12:57:01;95967.53;;;17.21;57.80
51123;BME280;37162;41.724;13.346;2023-04-04T12:59:29;95965.91;;;17.20;57.66
51123;BME280;37162;41.724;13.346;2023-04-04T13:01:56;95965.91;;;17.20;57.62
51123;BME280;37162;41.724;13.346;2023-04-04T13:04:22;95958.66;;;17.21;57.61
51123;BME280;37162;41.724;13.346;2023-04-04T13:06:48;95964.03;;;17.21;57.83
51123;BME280;37162;41.724;13.346;2023-04-04T13:09:18;95960.53;;;17.20;57.54
51123;BME280;37162;41.724;13.346;2023-04-04T13:12:01;95960.53;;;17.20;57.82
51123;BME280;37162;41.724;13.346;2023-04-04T13:14:27;95956.25;;;17.19;58.05
51123;BME280;37162;41.724;13.346;2023-04-04T13:17:04;95958.94;;;17.19;57.88